createdAt,value
2017-12-11T00:00:01.576Z,-1.13
2017-12-11T00:02:29.183Z,-1.14
2017-12-11T00:04:56.879Z,-1.17
2017-12-11T00:07:24.535Z,-1.09
2017-12-11T00:09:52.149Z,-0.93
2017-12-11T00:12:19.810Z,-0.90
2017-12-11T00:14:47.419Z,-0.86
2017-12-11T00:17:15.046Z,-0.83
2017-12-11T00:19:42.703Z,-0.85
2017-12-11T00:22:10.373Z,-0.81
2017-12-11T00:24:37.974Z,-0.78
2017-12-11T00:27:05.643Z,-0.73
2017-12-11T00:29:33.260Z,-0.74
2017-12-11T00:32:00.870Z,-0.69
2017-12-11T00:34:28.616Z,-0.71
2017-12-11T00:36:56.232Z,-0.73
2017-12-11T00:39:23.906Z,-0.72
2017-12-11T00:41:51.591Z,-0.70
2017-12-11T00:44:19.207Z,-0.70
2017-12-11T00:46:46.920Z,-0.79
2017-12-11T00:49:14.668Z,-0.84
2017-12-11T00:51:42.349Z,-0.86
2017-12-11T00:54:09.962Z,-0.83
2017-12-11T00:56:37.688Z,-0.77
2017-12-11T00:59:05.363Z,-0.69
2017-12-11T01:01:32.976Z,-0.71
2017-12-11T01:04:00.646Z,-0.59
2017-12-11T01:06:28.321Z,-0.45
2017-12-11T01:08:55.993Z,-0.42
2017-12-11T01:11:23.659Z,-0.52
2017-12-11T01:13:51.266Z,-0.61
2017-12-11T01:16:18.877Z,-0.54
2017-12-11T01:18:46.611Z,-0.66
2017-12-11T01:21:14.308Z,-0.73
2017-12-11T01:23:41.984Z,-0.70
2017-12-11T01:26:09.655Z,-0.68
2017-12-11T01:28:37.270Z,-0.78
2017-12-11T01:31:04.898Z,-0.67
2017-12-11T01:33:32.566Z,-0.68
2017-12-11T01:36:00.179Z,-0.64
2017-12-11T01:38:27.840Z,-0.72
2017-12-11T01:40:55.599Z,-0.79
2017-12-11T01:43:23.279Z,-0.86
2017-12-11T01:45:50.991Z,-0.88
2017-12-11T01:48:18.666Z,-0.81
2017-12-11T01:50:46.284Z,-0.85
2017-12-11T01:53:13.961Z,-0.78
2017-12-11T01:55:41.623Z,-0.71
2017-12-11T01:58:09.236Z,-0.69
2017-12-11T02:00:36.839Z,-0.81
2017-12-11T02:03:04.579Z,-0.79
2017-12-11T02:05:32.199Z,-0.97
2017-12-11T02:07:59.887Z,-1.05
2017-12-11T02:10:27.567Z,-1.10
2017-12-11T02:12:55.195Z,-1.12
2017-12-11T02:15:22.876Z,-1.09
2017-12-11T02:17:50.538Z,-1.14
2017-12-11T02:20:18.171Z,-1.04
2017-12-11T02:22:45.782Z,-1.08
2017-12-11T02:25:13.447Z,-1.01
2017-12-11T02:27:41.131Z,-1.06
2017-12-11T02:30:08.747Z,-0.99
2017-12-11T02:32:36.428Z,-0.97
2017-12-11T02:35:04.093Z,-0.97
2017-12-11T02:37:31.728Z,-0.96
2017-12-11T02:39:59.408Z,-0.99
2017-12-11T02:42:27.076Z,-0.90
2017-12-11T02:44:54.704Z,-0.92
2017-12-11T02:47:22.415Z,-0.95
2017-12-11T02:49:50.041Z,-0.94
2017-12-11T02:52:17.688Z,-0.87
2017-12-11T02:54:45.417Z,-0.80
2017-12-11T02:57:13.035Z,-0.78
2017-12-11T02:59:40.719Z,-0.87
2017-12-11T03:02:08.448Z,-0.87
2017-12-11T03:04:36.068Z,-0.78
2017-12-11T03:07:03.759Z,-0.74
2017-12-11T03:09:31.450Z,-0.66
2017-12-11T03:11:59.066Z,-0.62
2017-12-11T03:14:26.686Z,-0.57
2017-12-11T03:16:54.448Z,-0.59
2017-12-11T03:19:22.130Z,-0.60
2017-12-11T03:21:49.747Z,-0.59
2017-12-11T03:24:17.424Z,-0.59
2017-12-11T03:26:45.034Z,-0.56
2017-12-11T03:29:12.711Z,-0.58
2017-12-11T03:31:40.387Z,-0.55
2017-12-11T03:34:08.072Z,-0.32
2017-12-11T03:36:35.735Z,-0.25
2017-12-11T03:39:03.467Z,-0.21
2017-12-11T03:41:31.078Z,-0.16
2017-12-11T03:43:58.698Z,-0.04
2017-12-11T03:46:26.430Z,-0.02
2017-12-11T03:48:54.031Z,0.04
2017-12-11T03:51:21.687Z,0.01
2017-12-11T03:53:49.410Z,-0.04
2017-12-11T03:56:17.035Z,-0.10
2017-12-11T03:58:44.648Z,-0.19
2017-12-11T04:01:12.367Z,-0.22
2017-12-11T04:03:39.980Z,-0.31
2017-12-11T04:06:07.659Z,-0.40
2017-12-11T04:08:35.318Z,-0.39
2017-12-11T04:11:02.922Z,-0.42
2017-12-11T04:13:30.523Z,-0.47
2017-12-11T04:15:58.240Z,-0.49
2017-12-11T04:18:25.851Z,-0.55
2017-12-11T04:20:53.466Z,-0.66
2017-12-11T04:23:21.147Z,-0.68
2017-12-11T04:25:48.763Z,-0.65
2017-12-11T04:28:16.423Z,-0.67
2017-12-11T04:30:44.151Z,-0.71
2017-12-11T04:33:11.811Z,-0.72
2017-12-11T04:35:39.480Z,-0.72
2017-12-11T04:38:07.146Z,-0.72
2017-12-11T04:40:34.763Z,-0.71
2017-12-11T04:43:02.382Z,-0.66
2017-12-11T04:45:30.043Z,-0.65
2017-12-11T04:47:57.653Z,-0.56
2017-12-11T04:50:25.268Z,-0.51
2017-12-11T04:52:52.996Z,-0.52
2017-12-11T04:55:20.599Z,-0.49
2017-12-11T04:57:48.275Z,-0.48
2017-12-11T05:00:16.008Z,-0.52
2017-12-11T05:02:43.620Z,-0.53
2017-12-11T05:05:11.238Z,-0.58
2017-12-11T05:07:38.968Z,-0.64
2017-12-11T05:10:06.631Z,-0.62
2017-12-11T05:12:34.246Z,-0.58
2017-12-11T05:15:01.911Z,-0.60
2017-12-11T05:17:29.588Z,-0.62
2017-12-11T05:19:57.207Z,-0.57
2017-12-11T05:22:24.902Z,-0.50
2017-12-11T05:24:52.552Z,-0.39
2017-12-11T05:27:20.252Z,-0.32
2017-12-11T05:29:47.975Z,-0.35
2017-12-11T05:32:15.594Z,-0.40
2017-12-11T05:34:43.260Z,-0.37
2017-12-11T05:37:10.961Z,-0.25
2017-12-11T05:39:38.582Z,-0.22
2017-12-11T05:42:06.212Z,-0.12
2017-12-11T05:44:33.944Z,-0.03
2017-12-11T05:47:01.635Z,0.12
2017-12-11T05:49:29.251Z,0.18
2017-12-11T05:51:56.989Z,0.31
2017-12-11T05:54:24.604Z,0.51
2017-12-11T05:56:52.284Z,0.63
2017-12-11T05:59:20.069Z,0.71
2017-12-11T06:01:47.746Z,0.79
2017-12-11T06:04:15.371Z,0.95
2017-12-11T06:06:43.035Z,1.16
2017-12-11T06:09:10.712Z,1.37
2017-12-11T06:11:38.343Z,1.49
2017-12-11T06:14:06.011Z,1.62
2017-12-11T06:16:33.689Z,1.74
2017-12-11T06:19:01.299Z,1.74
2017-12-11T06:21:28.983Z,1.85
2017-12-11T06:23:56.652Z,1.93
2017-12-11T06:26:24.355Z,1.97
2017-12-11T06:28:52.028Z,2.00
2017-12-11T06:31:19.638Z,2.11
2017-12-11T06:33:47.254Z,2.22
2017-12-11T06:36:14.981Z,2.29
2017-12-11T06:38:42.587Z,2.37
2017-12-11T06:41:10.276Z,2.40
2017-12-11T06:43:37.947Z,2.40
2017-12-11T06:46:05.576Z,2.39
2017-12-11T06:48:33.188Z,2.43
2017-12-11T06:51:00.857Z,2.49
2017-12-11T06:53:28.479Z,2.51
2017-12-11T06:55:56.083Z,2.61
2017-12-11T06:58:23.759Z,2.63
2017-12-11T07:00:51.376Z,2.70
2017-12-11T07:03:19.166Z,2.83
2017-12-11T07:05:46.836Z,2.99
2017-12-11T07:08:14.463Z,3.14
2017-12-11T07:10:42.083Z,3.19
2017-12-11T07:13:09.756Z,3.18
2017-12-11T07:15:37.444Z,3.27
2017-12-11T07:18:05.074Z,3.46
2017-12-11T07:20:32.753Z,3.53
2017-12-11T07:23:00.371Z,3.54
2017-12-11T07:25:28.001Z,3.59
2017-12-11T07:27:55.760Z,3.70
2017-12-11T07:30:23.366Z,3.74
2017-12-11T07:32:50.993Z,3.85
2017-12-11T07:35:18.675Z,3.98
2017-12-11T07:37:46.347Z,4.25
2017-12-11T07:40:14.028Z,4.49
2017-12-11T07:42:41.704Z,4.77
2017-12-11T07:45:09.327Z,4.95
2017-12-11T07:47:36.938Z,5.12
2017-12-11T07:50:04.614Z,5.15
2017-12-11T07:52:32.239Z,5.41
2017-12-11T07:54:59.856Z,5.72
2017-12-11T07:57:27.519Z,5.90
2017-12-11T07:59:55.214Z,5.92
2017-12-11T08:02:22.834Z,5.90
2017-12-11T08:04:50.506Z,6.11
2017-12-11T08:07:18.120Z,6.38
2017-12-11T08:09:45.906Z,6.46
2017-12-11T08:12:13.584Z,6.69
2017-12-11T08:14:41.208Z,6.75
2017-12-11T08:17:08.883Z,7.07
2017-12-11T08:19:36.552Z,7.27
2017-12-11T08:22:04.168Z,7.54
2017-12-11T08:24:31.783Z,7.62
2017-12-11T08:26:59.512Z,7.74
2017-12-11T08:29:27.136Z,7.88
2017-12-11T08:31:54.816Z,7.92
2017-12-11T08:34:22.487Z,7.91
2017-12-11T08:36:50.096Z,7.92
2017-12-11T08:39:17.698Z,8.11
2017-12-11T08:41:45.363Z,8.21
2017-12-11T08:44:13.040Z,8.32
2017-12-11T08:46:40.663Z,8.43
2017-12-11T08:49:08.367Z,8.58
2017-12-11T08:51:35.976Z,8.51
2017-12-11T08:54:03.595Z,8.41
2017-12-11T08:56:31.283Z,8.30
2017-12-11T08:58:58.905Z,8.48
2017-12-11T09:01:26.578Z,8.87
2017-12-11T09:03:54.332Z,9.17
2017-12-11T09:06:21.951Z,9.23
2017-12-11T09:08:49.571Z,9.44
2017-12-11T09:11:17.289Z,9.75
2017-12-11T09:13:44.963Z,10.30
2017-12-11T09:16:12.579Z,10.52
2017-12-11T09:18:40.245Z,10.52
2017-12-11T09:21:07.847Z,10.72
2017-12-11T09:23:35.448Z,10.84
2017-12-11T09:26:03.255Z,11.03
2017-12-11T09:28:30.928Z,10.85
2017-12-11T09:30:58.599Z,10.68
2017-12-11T09:33:26.288Z,10.62
2017-12-11T09:35:53.965Z,10.60
2017-12-11T09:38:21.628Z,10.61
2017-12-11T09:40:49.351Z,10.63
2017-12-11T09:43:16.959Z,10.60
2017-12-11T09:45:44.578Z,10.55
2017-12-11T09:48:12.235Z,10.52
2017-12-11T09:50:39.845Z,10.52
2017-12-11T09:53:07.466Z,10.44
2017-12-11T09:55:35.139Z,10.41
2017-12-11T09:58:02.767Z,10.54
2017-12-11T10:00:30.395Z,10.52
2017-12-11T10:02:58.068Z,10.50
2017-12-11T10:05:25.751Z,10.36
2017-12-11T10:07:53.361Z,10.43
2017-12-11T10:10:21.091Z,10.45
2017-12-11T10:12:49.598Z,10.09
2017-12-11T10:15:17.206Z,9.95
2017-12-11T10:17:44.903Z,9.96
2017-12-11T10:20:12.523Z,10.19
2017-12-11T10:22:40.139Z,10.34
2017-12-11T10:25:07.851Z,10.53
2017-12-11T10:27:35.471Z,10.49
2017-12-11T10:30:03.144Z,10.54
2017-12-11T10:32:30.878Z,10.38
2017-12-11T10:34:58.502Z,10.22
2017-12-11T10:37:26.120Z,10.27
2017-12-11T10:39:53.826Z,10.30
2017-12-11T10:42:21.459Z,10.36
2017-12-11T10:44:49.074Z,10.40
2017-12-11T10:47:16.739Z,10.55
2017-12-11T10:49:44.363Z,10.58
2017-12-11T10:52:12.036Z,10.49
2017-12-11T10:54:39.785Z,10.36
2017-12-11T10:57:07.458Z,10.44
2017-12-11T10:59:35.071Z,10.58
2017-12-11T11:02:02.756Z,10.83
2017-12-11T11:04:30.436Z,10.79
2017-12-11T11:06:58.111Z,10.99
2017-12-11T11:09:25.791Z,11.27
2017-12-11T11:11:53.412Z,11.42
2017-12-11T11:14:21.103Z,11.53
2017-12-11T11:16:48.824Z,11.69
2017-12-11T11:19:16.503Z,11.83
2017-12-11T11:21:44.183Z,11.89
2017-12-11T11:24:11.892Z,11.94
2017-12-11T11:26:39.511Z,12.20
2017-12-11T11:29:07.183Z,12.17
2017-12-11T11:31:34.858Z,12.06
2017-12-11T11:34:02.486Z,11.97
2017-12-11T11:36:30.111Z,11.66
2017-12-11T11:38:57.947Z,11.39
2017-12-11T11:41:25.636Z,11.13
2017-12-11T11:43:53.263Z,11.24
2017-12-11T11:46:21.016Z,11.21
2017-12-11T11:48:48.691Z,11.09
2017-12-11T11:51:16.359Z,11.08
2017-12-11T12:05:25.573Z,11.55
2017-12-11T12:07:53.212Z,11.45
2017-12-11T12:10:20.831Z,11.52
2017-12-11T12:12:48.523Z,11.57
2017-12-11T12:15:16.140Z,11.56
2017-12-11T12:17:43.771Z,11.62
2017-12-11T12:20:11.451Z,11.65
2017-12-11T12:25:37.121Z,11.56
2017-12-11T12:28:04.743Z,11.45
2017-12-11T12:30:32.431Z,11.44
2017-12-11T12:33:00.104Z,11.53
2017-12-11T12:35:27.798Z,11.47
2017-12-11T12:37:55.484Z,11.51
2017-12-11T12:40:23.157Z,11.59
2017-12-11T12:42:50.832Z,11.56
2017-12-11T12:45:18.503Z,11.49
2017-12-11T12:47:46.219Z,11.34
2017-12-11T12:50:13.840Z,11.31
2017-12-11T12:52:41.524Z,11.33
2017-12-11T12:55:09.200Z,11.28
2017-12-11T12:57:36.816Z,11.24
2017-12-11T13:00:04.594Z,11.22
2017-12-11T13:02:32.312Z,11.18
2017-12-11T13:04:59.921Z,11.11
2017-12-11T13:07:27.546Z,10.98
2017-12-11T13:09:55.219Z,10.90
2017-12-11T13:12:22.828Z,10.77
2017-12-11T13:14:50.438Z,10.75
2017-12-11T13:17:18.108Z,10.59
2017-12-11T13:19:45.763Z,10.51
2017-12-11T13:22:13.373Z,10.47
2017-12-11T13:24:41.109Z,10.36
2017-12-11T13:27:08.720Z,10.29
2017-12-11T13:29:36.443Z,10.20
2017-12-11T13:32:04.138Z,10.11
2017-12-11T13:34:31.766Z,9.95
2017-12-11T13:36:59.398Z,9.85
2017-12-11T13:39:27.135Z,9.62
2017-12-11T13:41:54.804Z,9.44
2017-12-11T13:44:22.420Z,9.24
2017-12-11T13:46:50.101Z,9.08
2017-12-11T13:49:17.736Z,8.98
2017-12-11T13:51:45.424Z,8.87
2017-12-11T13:54:13.102Z,8.68
2017-12-11T13:56:40.780Z,8.61
2017-12-11T13:59:08.395Z,8.51
2017-12-11T14:01:36.064Z,8.44
2017-12-11T14:04:03.679Z,8.33
2017-12-11T14:06:31.299Z,8.21
2017-12-11T14:08:58.975Z,8.03
2017-12-11T14:11:26.596Z,7.86
2017-12-11T14:13:54.222Z,7.74
2017-12-11T14:16:21.891Z,7.64
2017-12-11T14:18:49.592Z,7.50
2017-12-11T14:21:17.273Z,7.37
2017-12-11T14:23:44.962Z,7.22
2017-12-11T14:26:12.578Z,7.09
2017-12-11T14:28:40.250Z,6.93
2017-12-11T14:31:08.012Z,6.81
2017-12-11T14:33:35.627Z,6.66
2017-12-11T14:36:03.244Z,6.56
2017-12-11T14:38:30.923Z,6.46
2017-12-11T14:40:58.548Z,6.35
2017-12-11T14:43:26.163Z,6.29
2017-12-11T14:45:53.841Z,6.27
2017-12-11T14:48:21.466Z,6.21
2017-12-11T14:50:49.086Z,6.18
2017-12-11T14:53:16.788Z,6.11
2017-12-11T14:55:44.408Z,6.02
2017-12-11T14:58:12.032Z,5.86
2017-12-11T15:00:39.755Z,5.72
2017-12-11T15:03:07.426Z,5.62
2017-12-11T15:05:35.097Z,5.48
2017-12-11T15:08:02.775Z,5.41
2017-12-11T15:10:30.398Z,5.35
2017-12-11T15:12:58.037Z,5.29
2017-12-11T15:15:25.772Z,5.21
2017-12-11T15:17:53.391Z,5.15
2017-12-11T15:20:21.011Z,5.04
2017-12-11T15:22:48.706Z,4.91
2017-12-11T15:25:16.325Z,4.82
2017-12-11T15:27:44.012Z,4.75
2017-12-11T15:30:11.702Z,4.73
2017-12-11T15:32:39.335Z,4.68
2017-12-11T15:35:06.960Z,4.68
2017-12-11T15:37:34.652Z,4.62
2017-12-11T15:40:02.321Z,4.60
2017-12-11T15:42:29.971Z,4.56
2017-12-11T15:44:57.644Z,4.48
2017-12-11T15:47:25.280Z,4.44
2017-12-11T15:49:52.910Z,4.41
2017-12-11T15:52:20.585Z,4.42
2017-12-11T15:54:48.224Z,4.39
2017-12-11T15:57:15.849Z,4.42
2017-12-11T15:59:43.544Z,4.48
2017-12-11T16:02:11.168Z,4.48
2017-12-11T16:04:38.899Z,4.47
2017-12-11T16:07:06.581Z,4.43
2017-12-11T16:09:34.209Z,4.38
2017-12-11T16:12:01.847Z,4.34
2017-12-11T16:14:29.520Z,4.26
2017-12-11T16:16:57.200Z,4.24
2017-12-11T16:19:24.823Z,4.24
2017-12-11T16:21:52.513Z,4.23
2017-12-11T16:24:20.137Z,4.21
2017-12-11T16:26:47.837Z,4.21
2017-12-11T16:29:15.520Z,4.15
2017-12-11T16:31:43.193Z,4.13
2017-12-11T16:34:10.875Z,4.07
2017-12-11T16:36:38.542Z,4.09
2017-12-11T16:39:06.162Z,4.08
2017-12-11T16:41:33.787Z,3.99
2017-12-11T16:44:01.524Z,3.94
2017-12-11T16:46:29.151Z,3.93
2017-12-11T16:48:56.831Z,3.92
2017-12-11T16:51:24.592Z,3.94
2017-12-11T16:53:52.241Z,3.86
2017-12-11T16:56:19.862Z,3.87
2017-12-11T16:58:47.628Z,3.82
2017-12-11T17:01:15.274Z,3.85
2017-12-11T17:03:42.910Z,3.86
2017-12-11T17:06:10.599Z,3.85
2017-12-11T17:08:38.287Z,3.79
2017-12-11T17:11:05.983Z,3.73
2017-12-11T17:13:33.742Z,3.59
2017-12-11T17:16:01.440Z,3.53
2017-12-11T17:18:29.060Z,3.53
2017-12-11T17:20:56.794Z,3.52
2017-12-11T17:23:24.417Z,3.55
2017-12-11T17:25:52.044Z,3.46
2017-12-11T17:28:19.727Z,3.45
2017-12-11T17:30:47.358Z,3.37
2017-12-11T17:33:15.037Z,3.44
2017-12-11T17:35:42.712Z,3.44
2017-12-11T17:38:10.404Z,3.47
2017-12-11T17:40:38.035Z,3.46
2017-12-11T17:43:05.749Z,3.54
2017-12-11T17:45:33.380Z,3.57
2017-12-11T17:48:01.072Z,3.58
2017-12-11T17:50:28.759Z,3.60
2017-12-11T17:52:56.394Z,3.57
2017-12-11T17:55:24.091Z,3.59
2017-12-11T17:57:51.820Z,3.51
2017-12-11T18:00:19.495Z,3.41
2017-12-11T18:02:47.208Z,3.46
2017-12-11T18:05:14.910Z,3.49
2017-12-11T18:07:42.545Z,3.53
2017-12-11T18:10:10.179Z,3.60
2017-12-11T18:12:37.913Z,3.65
2017-12-11T18:15:05.608Z,3.69
2017-12-11T18:17:33.224Z,3.69
2017-12-11T18:20:00.988Z,3.60
2017-12-11T18:22:28.627Z,3.63
2017-12-11T18:24:56.280Z,3.68
2017-12-11T18:27:23.963Z,3.61
2017-12-11T18:29:51.635Z,3.55
2017-12-11T18:32:19.355Z,3.45
2017-12-11T18:34:47.080Z,3.27
2017-12-11T18:37:14.703Z,3.17
2017-12-11T18:39:42.343Z,3.07
2017-12-11T18:42:10.151Z,3.02
2017-12-11T18:44:37.760Z,2.94
2017-12-11T18:47:05.428Z,2.91
2017-12-11T18:49:33.156Z,2.81
2017-12-11T18:52:00.836Z,2.74
2017-12-11T18:54:29.680Z,2.61
2017-12-11T18:56:57.413Z,2.63
2017-12-11T18:59:25.099Z,2.64
2017-12-11T19:01:52.811Z,2.66
2017-12-11T19:04:20.521Z,2.69
2017-12-11T19:06:48.152Z,2.74
2017-12-11T19:09:15.844Z,2.75
2017-12-11T19:11:43.573Z,2.76
2017-12-11T19:14:11.340Z,2.80
2017-12-11T19:16:39.036Z,2.85
2017-12-11T19:19:06.724Z,2.87
2017-12-11T19:21:34.432Z,2.78
2017-12-11T19:24:02.064Z,2.66
2017-12-11T19:26:29.816Z,2.50
2017-12-11T19:28:57.516Z,2.43
2017-12-11T19:31:25.204Z,2.42
2017-12-11T19:33:52.986Z,2.34
2017-12-11T19:36:20.612Z,2.23
2017-12-11T19:38:48.239Z,2.20
2017-12-11T19:41:15.931Z,2.23
2017-12-11T19:43:43.567Z,2.26
2017-12-11T19:46:11.192Z,2.24
2017-12-11T19:48:38.934Z,2.30
2017-12-11T19:51:06.627Z,2.37
2017-12-11T19:53:34.256Z,2.44
2017-12-11T19:56:01.959Z,2.38
2017-12-11T19:58:29.714Z,2.38
2017-12-11T20:00:57.324Z,2.34
2017-12-11T20:03:25.007Z,2.34
2017-12-11T20:05:52.703Z,2.29
2017-12-11T20:08:20.330Z,2.27
2017-12-11T20:10:48.068Z,2.32
2017-12-11T20:13:15.744Z,2.33
2017-12-11T20:15:43.354Z,2.27
2017-12-11T20:18:11.095Z,2.30
2017-12-11T20:20:38.720Z,2.31
2017-12-11T20:23:06.351Z,2.40
2017-12-11T20:25:34.075Z,2.54
2017-12-11T20:28:01.688Z,2.77
2017-12-11T20:30:29.309Z,2.93
2017-12-11T20:32:56.992Z,2.89
2017-12-11T20:35:24.617Z,2.84
2017-12-11T20:37:52.235Z,2.86
2017-12-11T20:40:19.927Z,2.88
2017-12-11T20:42:47.560Z,2.90
2017-12-11T20:45:15.179Z,2.89
2017-12-11T20:47:42.872Z,2.91
2017-12-11T20:50:10.487Z,2.90
2017-12-11T20:52:38.181Z,2.94
2017-12-11T20:55:05.855Z,2.98
2017-12-11T20:57:33.487Z,2.94
2017-12-11T21:00:01.177Z,2.88
2017-12-11T21:02:28.856Z,2.82
2017-12-11T21:04:56.547Z,2.84
2017-12-11T21:07:24.172Z,2.85
2017-12-11T21:09:51.866Z,2.85
2017-12-11T21:12:19.490Z,2.84
2017-12-11T21:14:47.115Z,2.78
2017-12-11T21:17:14.795Z,2.83
2017-12-11T21:19:42.432Z,2.78
2017-12-11T21:22:10.070Z,2.75
2017-12-11T21:24:37.816Z,2.66
2017-12-11T21:27:05.446Z,2.59
2017-12-11T21:29:33.107Z,2.53
2017-12-11T21:32:00.798Z,2.48
2017-12-11T21:34:28.484Z,2.41
2017-12-11T21:36:56.113Z,2.35
2017-12-11T21:39:23.803Z,2.33
2017-12-11T21:41:51.452Z,2.29
2017-12-11T21:44:19.081Z,2.30
2017-12-11T21:46:46.763Z,2.30
2017-12-11T21:49:14.403Z,2.29
2017-12-11T21:51:42.092Z,2.28
2017-12-11T21:54:09.867Z,2.26
2017-12-11T21:56:37.544Z,2.22
2017-12-11T21:59:05.171Z,2.23
2017-12-11T22:01:32.846Z,2.18
2017-12-11T22:04:00.472Z,2.18
2017-12-11T22:06:28.216Z,2.15
2017-12-11T22:08:55.901Z,2.16
2017-12-11T22:11:23.520Z,2.16
2017-12-11T22:13:51.237Z,2.10
2017-12-11T22:16:18.927Z,2.06
2017-12-11T22:18:46.555Z,2.01
2017-12-11T22:21:14.212Z,2.02
2017-12-11T22:23:41.899Z,2.08
2017-12-11T22:26:09.523Z,2.10
2017-12-11T22:28:37.201Z,2.10
2017-12-11T22:31:04.892Z,2.05
2017-12-11T22:33:32.510Z,1.98
2017-12-11T22:36:00.135Z,1.94
2017-12-11T22:38:27.810Z,1.91
2017-12-11T22:40:55.431Z,1.91
2017-12-11T22:43:23.125Z,1.86
2017-12-11T22:45:50.838Z,1.86
2017-12-11T22:48:18.517Z,1.81
2017-12-11T22:50:46.203Z,1.84
2017-12-11T22:53:13.883Z,1.83
2017-12-11T22:55:41.504Z,1.76
2017-12-11T22:58:09.190Z,1.77
2017-12-11T23:00:36.856Z,1.77
2017-12-11T23:03:04.479Z,1.72
2017-12-11T23:05:32.100Z,1.62
2017-12-11T23:07:59.775Z,1.55
2017-12-11T23:10:27.400Z,1.60
2017-12-11T23:12:55.020Z,1.59
2017-12-11T23:15:22.767Z,1.54
2017-12-11T23:17:50.383Z,1.49
2017-12-11T23:20:18.006Z,1.50
2017-12-11T23:22:45.687Z,1.51
2017-12-11T23:25:13.303Z,1.54
2017-12-11T23:27:40.918Z,1.66
2017-12-11T23:30:08.593Z,1.77
2017-12-11T23:32:36.206Z,1.75
2017-12-11T23:35:03.827Z,1.76
2017-12-11T23:37:31.502Z,1.80
2017-12-11T23:39:59.185Z,1.81
2017-12-11T23:42:26.863Z,1.77
2017-12-11T23:44:54.559Z,1.72
2017-12-11T23:47:22.171Z,1.79
2017-12-11T23:49:49.860Z,2.00
2017-12-11T23:52:17.546Z,1.93
2017-12-11T23:54:45.171Z,1.93
2017-12-11T23:57:12.798Z,1.95
2017-12-11T23:59:40.528Z,1.97
